EW2849 Weather Reports


time (UTC)temp
C
wind
direction
speed
KPH
gust
KPH
rain 1hr
cm
rain 24hr
cm
rain mn
cm
humidity
%
barometer
mb
20190424141016 23 157 8.0 27.4 0.00 1.78 0.69 45
20190424140016 25 202 12.9 43.5 0.00 1.78 0.69 41
20190424135016 25 135 12.9 56.3 0.00 1.78 0.69 42
20190424134016 25 225 12.9 43.5 0.00 1.78 0.69 42
20190424133033 25 225 16.1 53.1 0.00 1.78 0.69 42
20190424132017 25 225 12.9 46.7 0.08 1.78 0.69 42
20190424131016 24 225 14.5 43.5 0.18 1.78 0.69 44
20190424130016 24 157 12.9 41.8 0.18 1.78 0.69 44
20190424125016 25 202 6.4 29.0 0.18 1.78 0.69 43
20190424124017 23 157 12.9 43.5 0.18 1.78 0.69 44
20190424123016 25 157 16.1 61.2 0.18 1.78 0.69 42
20190424122017 25 202 11.3 38.6 0.08 1.68 0.58 43
20190424121016 25 157 11.3 37.0 0.00 1.57 0.48 43
20190424120016 25 202 12.9 41.8 0.00 1.57 0.48 42
20190424115016 25 157 11.3 35.4 0.00 1.57 0.48 43
20190424114017 25 112 6.4 25.7 0.08 1.57 0.48 45
20190424113016 25 157 17.7 62.8 0.08 1.68 0.48 46
20190424112016 25 225 14.5 49.9 0.08 1.68 0.48 46
20190424111017 24 157 11.3 51.5 0.08 1.68 0.48 48
20190424110016 23 157 16.1 49.9 0.18 1.68 0.48 49
20190424105017 24 157 11.3 40.2 0.18 1.68 0.48 49
20190424104017 23 157 14.5 49.9 0.08 1.57 0.38 51
20190424103017 23 225 11.3 35.4 0.08 1.57 0.38 52
20190424102016 23 112 11.3 38.6 0.08 1.57 0.38 52
20190424101016 22 157 16.1 49.9 0.18 1.57 0.38 53
20190424100016 22 202 16.1 49.9 0.08 1.50 0.28 53
20190424095016 22 157 14.5 51.5 0.08 1.50 0.28 52
20190424094016 23 135 9.7 35.4 0.08 1.50 0.28 53
20190424093016 23 157 9.7 35.4 0.08 1.50 0.28 55
20190424092017 22 157 11.3 40.2 0.08 1.50 0.28 55
20190424091019 22 157 16.1 54.7 0.00 1.40 0.18 56
20190424090016 22 157 6.4 27.4 0.00 1.40 0.18 57
20190424085016 22 202 11.3 48.3 0.00 1.40 0.18 57
20190424084016 21 157 4.8 22.5 0.00 1.40 0.18 58
20190424083016 21 202 12.9 41.8 0.00 1.57 0.18 59
20190424082016 21 225 9.7 35.4 0.00 1.57 0.18 59
20190424081016 20 135 9.7 43.5 0.00 1.57 0.18 61
20190424080016 20 202 12.9 45.1 0.00 1.57 0.18 62
20190424075017 19 157 9.7 35.4 0.00 1.57 0.18 65
20190424074016 18 135 11.3 43.5 0.00 1.57 0.18 67
20190424073017 18 135 4.8 19.3 0.00 1.57 0.18 68
20190424072016 17 157 8.0 37.0 0.00 1.57 0.18 70
20190424071017 17 135 8.0 37.0 0.00 1.57 0.18 71
20190424070017 16 112 4.8 25.7 0.00 1.57 0.18 75
20190424065016 16 135 4.8 19.3 0.00 1.57 0.18 76
20190424064016 15 112 3.2 12.9 0.00 1.57 0.18 78
20190424063017 15 45 3.2 9.7 0.00 1.57 0.18 80
20190424062017 14 90 0.0 6.4 0.00 1.57 0.18 81
20190424061111 14 112 4.8 20.9 0.00 1.57 0.18 82
20190424060017 14 135 3.2 9.7 0.00 1.57 0.18 82
20190424055017 14 112 1.6 6.4 0.08 1.57 0.18 82
20190424054016 14 112 1.6 9.7 0.08 1.57 0.18 83
20190424053017 13 135 3.2 12.9 0.08 1.57 0.18 84
20190424052016 13 90 1.6 12.9 0.08 1.57 0.18 85
20190424051017 13 90 3.2 12.9 0.08 1.57 0.18 85
20190424050016 13 135 1.6 6.4 0.08 1.57 0.18 85
20190424045016 13 90 1.6 6.4 0.00 1.50 0.08 85
20190424044018 13 90 3.2 12.9 0.00 1.50 0.08 85
20190424043016 13 90 1.6 17.7 0.00 1.50 0.08 85
20190424042016 13 90 0.0 0.0 0.00 1.50 0.08 85
20190424041017 13 112 0.0 4.8 0.00 1.50 0.08 84
20190424040016 13 67 0.0 1.6 0.08 1.57 0.08 84
20190424035016 13 90 0.0 6.4 0.08 1.68 0.08 84
20190424034016 13 157 1.6 8.0 0.08 1.68 0.08 84
20190424033016 13 112 3.2 11.3 0.08 1.68 0.08 84
20190424032016 13 135 0.0 4.8 0.08 1.68 0.08 83
20190424031020 13 135 3.2 12.9 0.08 1.68 0.08 83
20190424030016 13 135 1.6 9.7 0.00 1.57 0.00 83
20190424025016 13 135 0.0 6.4 0.00 1.68 0.00 82
20190424024016 13 157 1.6 6.4 0.00 1.68 0.00 81
20190424023016 13 135 0.0 6.4 0.00 1.68 0.00 81
20190424022016 13 135 0.0 1.6 0.00 1.68 0.00 81
20190424021016 13 135 0.0 6.4 0.00 1.68 0.00 80
20190424020017 13 135 0.0 6.4 0.00 1.68 0.00 79
20190424015016 14 157 0.0 4.8 0.00 1.68 0.00 78
20190424014016 14 112 0.0 0.0 0.00 1.68 0.00 78
20190424013016 14 112 0.0 4.8 0.00 1.68 0.00 77
20190424012016 14 157 0.0 3.2 0.00 1.68 0.00 76
20190424011016 15 157 0.0 3.2 0.00 1.68 0.00 75
20190424010016 15 90 0.0 1.6 0.00 1.68 0.00 75
20190424005016 15 135 0.0 6.4 0.00 1.68 0.00 74
20190424004016 15 157 0.0 1.6 0.00 1.68 0.00 73
20190424003016 15 157 0.0 4.8 0.00 1.68 0.00 73
20190424002016 15 157 0.0 6.4 0.00 1.68 0.00 72
20190424001016 15 157 1.6 6.4 0.00 1.68 0.00 72
20190424000016 15 112 0.0 3.2 0.00 1.68 0.00 71
20190423235016 15 157 1.6 8.0 0.00 1.68 0.00 70
20190423234016 15 135 1.6 9.7 0.00 1.68 0.00 70
20190423233017 16 135 0.0 6.4 0.00 1.68 0.00 69
20190423232016 16 135 0.0 4.8 0.00 1.68 0.00 69
20190423231016 16 157 0.0 4.8 0.00 1.68 0.00 69
20190423230016 16 112 0.0 3.2 0.00 1.68 0.00 68
20190423225016 16 112 0.0 4.8 0.00 1.68 0.00 68
20190423224016 16 157 0.0 6.4 0.08 1.68 0.00 68
20190423223016 16 135 0.0 4.8 0.08 1.68 0.00 68
20190423222016 16 135 0.0 6.4 0.08 1.68 0.00 67
20190423221016 16 135 0.0 4.8 0.08 1.68 0.00 66
20190423220016 16 157 0.0 1.6 0.08 1.68 0.00 65
20190423215016 17 157 1.6 6.4 0.08 1.68 1.68 64
20190423214016 17 112 3.2 11.3 0.00 1.57 1.57 64
20190423213016 17 157 4.8 20.9 0.00 1.57 1.57 63
20190423212018 17 90 1.6 11.3 0.00 1.57 1.57 62
20190423211016 16 112 3.2 11.3 0.08 1.57 1.57 63
20190423210016 17 22 0.0 4.8 0.08 1.57 1.57 62
20190423205016 17 112 3.2 9.7 0.08 1.57 1.57 62
20190423204016 17 112 4.8 17.7 0.08 1.57 1.57 61
20190423203016 17 67 3.2 11.3 0.08 1.57 1.57 61
20190423202016 17 90 0.0 6.4 0.18 1.57 1.57 61
20190423201016 17 67 1.6 6.4 0.08 1.50 1.50 60
20190423200021 17 90 3.2 11.3 0.18 1.50 1.50 59
20190423195016 17 45 1.6 9.7 0.18 1.50 1.50 58
20190423194016 17 45 1.6 6.4 0.28 1.50 1.50 58
20190423193016 18 22 1.6 8.0 0.28 1.50 1.50 57
20190423192017 18 67 1.6 12.9 0.18 1.50 1.40 56
20190423191017 18 45 1.6 9.7 0.18 1.50 1.40 56
20190423190016 18 45 3.2 12.9 0.08 1.40 1.30 56
20190423185016 18 45 3.2 9.7 0.08 1.40 1.30 54
20190423184028 18 67 3.2 9.7 0.00 1.40 1.19 54
20190423183017 19 67 1.6 8.0 0.00 1.40 1.19 52
20190423182016 19 67 1.6 12.9 0.08 1.40 1.19 52
20190423181016 20 90 3.2 12.9 0.08 1.40 1.19 52
20190423180016 20 45 3.2 12.9 0.08 1.40 1.19 51
20190423175021 20 45 3.2 9.7 0.08 1.40 1.19 50
20190423174016 20 67 1.6 6.4 0.08 1.40 1.19 50
20190423173016 20 45 4.8 22.5 0.08 1.40 1.19 49
20190423172016 20 112 4.8 20.9 0.00 1.30 1.09 49
20190423171018 21 45 3.2 17.7 0.00 1.30 1.09 48
20190423170016 21 45 4.8 19.3 0.00 1.30 1.09 47
20190423165016 21 90 3.2 11.3 0.08 1.30 1.09 47
20190423164016 21 67 4.8 19.3 0.08 1.30 1.09 46
20190423163018 21 90 8.0 30.6 0.08 1.30 1.09 46
20190423162016 21 45 9.7 33.8 0.08 1.30 1.09 45
20190423161016 21 90 8.0 38.6 0.18 1.30 1.09 45
20190423160016 21 90 8.0 35.4 0.18 1.30 1.09 45
20190423155016 22 112 6.4 25.7 0.08 1.19 0.99 45
20190423154016 22 90 9.7 30.6 0.08 1.30 0.99 45
20190423153016 22 67 6.4 25.7 0.18 1.30 0.99 45
20190423152017 22 90 9.7 33.8 0.38 1.30 0.99 45
20190423151016 22 90 6.4 25.7 0.28 1.19 0.89 45
20190423150016 22 90 11.3 37.0 0.28 1.19 0.89 44
20190423145016 22 45 12.9 49.9 0.28 1.19 0.89 42
20190423144016 22 45 16.1 56.3 0.28 1.19 0.89 42
20190423143016 23 90 8.0 25.7 0.18 1.09 0.79 41
20190423142016 23 90 11.3 41.8 0.00 0.99 0.58 42